sensor_id;sensor_type;location;lat;lon;timestamp;pressure;altitude;pressure_sealevel;temperature;humidity
50977;BME280;36992;48.200;12.418;2023-05-16T00:00:15;96316.50;;;15.93;53.47
50977;BME280;36992;48.200;12.418;2023-05-16T00:02:42;96316.81;;;15.91;53.36
50977;BME280;36992;48.200;12.418;2023-05-16T00:05:08;96312.03;;;15.88;53.66
50977;BME280;36992;48.200;12.418;2023-05-16T00:07:41;96309.31;;;15.88;53.37
50977;BME280;36992;48.200;12.418;2023-05-16T00:10:10;96306.50;;;15.84;53.54
50977;BME280;36992;48.200;12.418;2023-05-16T00:12:37;96308.63;;;15.78;53.73
50977;BME280;36992;48.200;12.418;2023-05-16T00:15:05;96304.66;;;15.76;53.41
50977;BME280;36992;48.200;12.418;2023-05-16T00:17:34;96302.28;;;15.74;53.51
50977;BME280;36992;48.200;12.418;2023-05-16T00:20:00;96311.56;;;15.73;53.79
50977;BME280;36992;48.200;12.418;2023-05-16T00:22:35;96312.69;;;15.72;53.82
50977;BME280;36992;48.200;12.418;2023-05-16T00:25:01;96312.69;;;15.72;53.98
50977;BME280;36992;48.200;12.418;2023-05-16T00:27:29;96312.38;;;15.74;54.02
50977;BME280;36992;48.200;12.418;2023-05-16T00:29:56;96304.53;;;15.72;53.63
50977;BME280;36992;48.200;12.418;2023-05-16T00:32:23;96313.47;;;15.73;54.10
50977;BME280;36992;48.200;12.418;2023-05-16T00:34:50;96309.66;;;15.74;53.99
50977;BME280;36992;48.200;12.418;2023-05-16T00:37:16;96317.44;;;15.75;53.95
50977;BME280;36992;48.200;12.418;2023-05-16T00:39:43;96313.94;;;15.75;54.19
50977;BME280;36992;48.200;12.418;2023-05-16T00:42:09;96321.75;;;15.76;53.57
50977;BME280;36992;48.200;12.418;2023-05-16T00:44:37;96311.69;;;15.77;54.08
50977;BME280;36992;48.200;12.418;2023-05-16T00:47:04;96303.88;;;15.75;54.01
50977;BME280;36992;48.200;12.418;2023-05-16T00:49:30;96303.88;;;15.75;53.83
50977;BME280;36992;48.200;12.418;2023-05-16T00:51:57;96299.56;;;15.74;53.73
50977;BME280;36992;48.200;12.418;2023-05-16T00:54:25;96296.41;;;15.72;53.84
50977;BME280;36992;48.200;12.418;2023-05-16T00:56:53;96297.06;;;15.69;53.61
50977;BME280;36992;48.200;12.418;2023-05-16T00:59:20;96290.38;;;15.67;53.79
50977;BME280;36992;48.200;12.418;2023-05-16T01:01:49;96288.13;;;15.69;53.97
50977;BME280;36992;48.200;12.418;2023-05-16T01:04:16;96297.28;;;15.64;54.08
50977;BME280;36992;48.200;12.418;2023-05-16T01:06:43;96296.50;;;15.63;53.87
50977;BME280;36992;48.200;12.418;2023-05-16T01:09:10;96302.56;;;15.60;54.28
50977;BME280;36992;48.200;12.418;2023-05-16T01:11:42;96295.69;;;15.63;54.01
50977;BME280;36992;48.200;12.418;2023-05-16T01:14:18;96302.25;;;15.62;53.83
50977;BME280;36992;48.200;12.418;2023-05-16T01:17:04;96301.78;;;15.60;54.22
50977;BME280;36992;48.200;12.418;2023-05-16T01:19:49;96304.97;;;15.62;53.79
50977;BME280;36992;48.200;12.418;2023-05-16T01:22:29;96298.63;;;15.58;53.91
50977;BME280;36992;48.200;12.418;2023-05-16T01:25:05;96295.44;;;15.56;54.08
50977;BME280;36992;48.200;12.418;2023-05-16T01:27:34;96297.72;;;15.54;54.43
50977;BME280;36992;48.200;12.418;2023-05-16T01:30:12;96290.69;;;15.53;54.33
50977;BME280;36992;48.200;12.418;2023-05-16T01:32:40;96285.81;;;15.46;54.27
50977;BME280;36992;48.200;12.418;2023-05-16T01:35:09;96282.75;;;15.47;54.15
50977;BME280;36992;48.200;12.418;2023-05-16T01:37:40;96281.94;;;15.47;54.37
50977;BME280;36992;48.200;12.418;2023-05-16T01:40:11;96282.75;;;15.47;54.38
50977;BME280;36992;48.200;12.418;2023-05-16T01:42:44;96278.00;;;15.44;54.59
50977;BME280;36992;48.200;12.418;2023-05-16T01:45:14;96282.63;;;15.44;54.67
50977;BME280;36992;48.200;12.418;2023-05-16T01:47:44;96285.69;;;15.42;54.26
50977;BME280;36992;48.200;12.418;2023-05-16T01:50:13;96282.03;;;15.38;54.79
50977;BME280;36992;48.200;12.418;2023-05-16T01:52:45;96281.72;;;15.40;54.40
50977;BME280;36992;48.200;12.418;2023-05-16T01:55:26;96281.72;;;15.40;54.42
50977;BME280;36992;48.200;12.418;2023-05-16T01:57:57;96282.50;;;15.40;54.63
50977;BME280;36992;48.200;12.418;2023-05-16T02:00:24;96279.19;;;15.34;54.74
50977;BME280;36992;48.200;12.418;2023-05-16T02:02:51;96281.59;;;15.36;54.76
50977;BME280;36992;48.200;12.418;2023-05-16T02:05:17;96281.59;;;15.36;54.64
50977;BME280;36992;48.200;12.418;2023-05-16T02:07:44;96282.72;;;15.35;54.79
50977;BME280;36992;48.200;12.418;2023-05-16T02:10:12;96286.22;;;15.35;54.60
50977;BME280;36992;48.200;12.418;2023-05-16T02:12:38;96278.41;;;15.34;54.71
50977;BME280;36992;48.200;12.418;2023-05-16T02:15:07;96287.47;;;15.38;54.22
50977;BME280;36992;48.200;12.418;2023-05-16T02:17:35;96282.72;;;15.35;54.52
50977;BME280;36992;48.200;12.418;2023-05-16T02:20:01;96289.28;;;15.34;54.46
50977;BME280;36992;48.200;12.418;2023-05-16T02:22:31;96278.75;;;15.32;54.69
50977;BME280;36992;48.200;12.418;2023-05-16T02:24:58;96279.06;;;15.31;55.03
50977;BME280;36992;48.200;12.418;2023-05-16T02:27:25;96292.19;;;15.29;54.85
50977;BME280;36992;48.200;12.418;2023-05-16T02:29:51;96289.81;;;15.27;54.89
50977;BME280;36992;48.200;12.418;2023-05-16T02:32:19;96286.31;;;15.27;55.07
50977;BME280;36992;48.200;12.418;2023-05-16T02:34:46;96286.97;;;15.23;54.91
50977;BME280;36992;48.200;12.418;2023-05-16T02:37:12;96283.00;;;15.21;54.66
50977;BME280;36992;48.200;12.418;2023-05-16T02:39:39;96283.31;;;15.19;54.73
50977;BME280;36992;48.200;12.418;2023-05-16T02:42:06;96280.16;;;15.17;55.03
50977;BME280;36992;48.200;12.418;2023-05-16T02:44:33;96279.34;;;15.17;54.93
50977;BME280;36992;48.200;12.418;2023-05-16T02:46:59;96273.16;;;15.16;55.02
50977;BME280;36992;48.200;12.418;2023-05-16T02:49:27;96274.72;;;15.17;55.08
50977;BME280;36992;48.200;12.418;2023-05-16T02:51:54;96269.63;;;15.16;54.94
50977;BME280;36992;48.200;12.418;2023-05-16T02:54:20;96268.38;;;15.13;55.01
50977;BME280;36992;48.200;12.418;2023-05-16T02:56:47;96267.59;;;15.13;55.01
50977;BME280;36992;48.200;12.418;2023-05-16T02:59:14;96274.59;;;15.14;54.93
50977;BME280;36992;48.200;12.418;2023-05-16T03:01:40;96274.94;;;15.12;54.99
50977;BME280;36992;48.200;12.418;2023-05-16T03:04:07;96268.38;;;15.13;54.92
50977;BME280;36992;48.200;12.418;2023-05-16T03:06:34;96275.41;;;15.14;54.96
50977;BME280;36992;48.200;12.418;2023-05-16T03:09:01;96279.22;;;15.13;54.83
50977;BME280;36992;48.200;12.418;2023-05-16T03:11:28;96279.22;;;15.13;55.30
50977;BME280;36992;48.200;12.418;2023-05-16T03:13:54;96281.63;;;15.15;55.20
50977;BME280;36992;48.200;12.418;2023-05-16T03:16:21;96271.56;;;15.15;55.22
50977;BME280;36992;48.200;12.418;2023-05-16T03:18:47;96273.16;;;15.16;55.16
50977;BME280;36992;48.200;12.418;2023-05-16T03:21:14;96274.72;;;15.17;55.09
50977;BME280;36992;48.200;12.418;2023-05-16T03:23:41;96271.69;;;15.19;55.17
50977;BME280;36992;48.200;12.418;2023-05-16T03:26:08;96269.31;;;15.17;55.34
50977;BME280;36992;48.200;12.418;2023-05-16T03:28:35;96276.31;;;15.18;55.23
50977;BME280;36992;48.200;12.418;2023-05-16T03:31:02;96266.59;;;15.17;55.31
50977;BME280;36992;48.200;12.418;2023-05-16T03:33:29;96272.81;;;15.18;55.01
50977;BME280;36992;48.200;12.418;2023-05-16T03:35:55;96269.31;;;15.17;55.00
50977;BME280;36992;48.200;12.418;2023-05-16T03:38:22;96268.50;;;15.17;55.16
50977;BME280;36992;48.200;12.418;2023-05-16T03:40:50;96267.84;;;15.20;55.09
50977;BME280;36992;48.200;12.418;2023-05-16T03:43:16;96259.25;;;15.18;55.07
50977;BME280;36992;48.200;12.418;2023-05-16T03:45:43;96268.50;;;15.17;55.09
50977;BME280;36992;48.200;12.418;2023-05-16T03:48:09;96270.13;;;15.18;55.07
50977;BME280;36992;48.200;12.418;2023-05-16T03:50:36;96267.72;;;15.16;55.22
50977;BME280;36992;48.200;12.418;2023-05-16T03:53:03;96269.31;;;15.17;55.03
50977;BME280;36992;48.200;12.418;2023-05-16T03:55:30;96268.50;;;15.17;55.25
50977;BME280;36992;48.200;12.418;2023-05-16T03:57:58;96272.47;;;15.19;55.13
50977;BME280;36992;48.200;12.418;2023-05-16T04:00:24;96259.25;;;15.18;55.28
50977;BME280;36992;48.200;12.418;2023-05-16T04:02:51;96265.47;;;15.18;55.23
50977;BME280;36992;48.200;12.418;2023-05-16T04:05:18;96258.44;;;15.17;55.05
50977;BME280;36992;48.200;12.418;2023-05-16T04:07:44;96256.88;;;15.16;55.38
50977;BME280;36992;48.200;12.418;2023-05-16T04:10:11;96247.94;;;15.16;55.29
50977;BME280;36992;48.200;12.418;2023-05-16T04:12:38;96255.75;;;15.17;55.04
50977;BME280;36992;48.200;12.418;2023-05-16T04:15:06;96247.59;;;15.17;55.12
50977;BME280;36992;48.200;12.418;2023-05-16T04:17:33;96247.16;;;15.15;55.26
50977;BME280;36992;48.200;12.418;2023-05-16T04:20:00;96247.16;;;15.15;55.10
50977;BME280;36992;48.200;12.418;2023-05-16T04:22:27;96246.66;;;15.13;55.16
50977;BME280;36992;48.200;12.418;2023-05-16T04:24:54;96257.88;;;15.12;55.56
50977;BME280;36992;48.200;12.418;2023-05-16T04:27:21;96259.34;;;15.09;55.71
50977;BME280;36992;48.200;12.418;2023-05-16T04:29:47;96253.09;;;15.08;55.33
50977;BME280;36992;48.200;12.418;2023-05-16T04:32:15;96258.19;;;15.10;55.42
50977;BME280;36992;48.200;12.418;2023-05-16T04:34:42;96261.25;;;15.08;55.44
50977;BME280;36992;48.200;12.418;2023-05-16T04:37:09;96256.63;;;15.09;55.54
50977;BME280;36992;48.200;12.418;2023-05-16T04:39:36;96256.63;;;15.09;55.47
50977;BME280;36992;48.200;12.418;2023-05-16T04:42:04;96261.38;;;15.12;55.64
